Time;durP1;ratioP1;P1;durP2;ratioP2;P2;SDS_P1;SDS_P2;PMS_P1;PMS_P2;Temp;Humidity;BMP_temperature;BMP_pressure;BME280_temperature;BME280_humidity;BME280_pressure;Samples;Min_cycle;Max_cycle;Signal;HPM_P1;HPM_P2
2022/03/10 00:01:33;;;;;;;12.23;2.50;;;;;;;9.65;nan;101860.38;4866182;29;20993;-88
2022/03/10 00:04:01;;;;;;;9.13;2.27;;;;;;;9.66;nan;101862.06;4865650;29;20451;-89
2022/03/10 00:06:29;;;;;;;10.60;2.73;;;;;;;9.63;nan;101859.66;4865955;29;20454;-89
2022/03/10 00:08:58;;;;;;;9.67;2.30;;;;;;;9.61;nan;101859.00;4864610;29;20443;-87
2022/03/10 00:11:25;;;;;;;8.13;2.97;;;;;;;9.49;nan;101843.88;4880982;29;20451;-88
2022/03/10 00:13:54;;;;;;;7.73;2.80;;;;;;;9.56;nan;101852.31;4850496;29;20529;-90
2022/03/10 00:16:22;;;;;;;7.93;2.53;;;;;;;9.48;nan;101847.63;4865557;29;20451;-88
2022/03/10 00:18:51;;;;;;;7.67;2.17;;;;;;;9.42;nan;101836.50;4880761;29;20451;-88
2022/03/10 00:21:19;;;;;;;12.87;2.40;;;;;;;9.45;nan;101837.03;4898475;29;20505;-89
2022/03/10 00:23:47;;;;;;;8.00;2.80;;;;;;;9.39;nan;101836.84;4883477;29;20454;-88
2022/03/10 00:26:16;;;;;;;11.00;3.33;;;;;;;9.42;nan;101840.09;4868052;29;20492;-89
2022/03/10 00:28:44;;;;;;;10.73;3.50;;;;;;;9.39;nan;101840.41;4900142;29;20449;-88
2022/03/10 00:31:12;;;;;;;11.17;3.57;;;;;;;9.39;nan;101840.41;4898715;29;20449;-90
2022/03/10 00:33:40;;;;;;;13.73;4.27;;;;;;;9.34;nan;101843.59;4868172;29;20454;-89
2022/03/10 00:36:08;;;;;;;13.20;4.83;;;;;;;9.28;nan;101832.47;4868472;29;20524;-89
2022/03/10 00:38:36;;;;;;;14.33;4.60;;;;;;;9.25;nan;101830.91;4868432;29;20456;-89
2022/03/10 00:41:04;;;;;;;11.73;3.27;;;;;;;9.23;nan;101832.13;4898584;29;20481;-88
2022/03/10 00:43:32;;;;;;;9.73;2.40;;;;;;;9.15;nan;101830.16;4867750;29;20454;-90
2022/03/10 00:46:00;;;;;;;9.27;2.70;;;;;;;9.15;nan;101832.03;4867683;29;20468;-89
2022/03/10 00:48:28;;;;;;;20.37;4.70;;;;;;;9.13;nan;101825.88;4867741;29;20457;-90
2022/03/10 00:50:57;;;;;;;15.90;5.53;;;;;;;9.10;nan;101829.78;4883440;29;20453;-91
2022/03/10 00:53:24;;;;;;;17.60;7.00;;;;;;;9.09;nan;101830.78;4868011;29;20458;-88
2022/03/10 00:55:52;;;;;;;19.70;6.80;;;;;;;9.02;nan;101835.16;4868090;29;20450;-88
2022/03/10 00:58:20;;;;;;;17.03;7.03;;;;;;;8.99;nan;101838.22;4883067;29;20460;-89
2022/03/10 01:00:47;;;;;;;16.60;7.10;;;;;;;8.95;nan;101834.94;4882872;29;20485;-88
2022/03/10 01:03:16;;;;;;;13.40;5.30;;;;;;;8.84;nan;101821.56;4882472;29;20816;-88
2022/03/10 01:05:46;;;;;;;15.63;5.50;;;;;;;8.89;nan;101826.50;4897952;29;20453;-91
2022/03/10 01:08:15;;;;;;;13.40;5.20;;;;;;;8.82;nan;101818.13;4867321;29;20928;-92
2022/03/10 01:10:43;;;;;;;13.93;4.50;;;;;;;8.80;nan;101825.59;4867959;29;20453;-92
2022/03/10 01:13:16;;;;;;;11.87;4.73;;;;;;;8.82;nan;101830.91;4868384;29;20462;-93
2022/03/10 01:15:46;;;;;;;11.23;4.30;;;;;;;8.76;nan;101824.19;4883952;29;20512;-92
2022/03/10 01:18:30;;;;;;;12.43;4.80;;;;;;;8.75;nan;101825.19;4894037;29;20456;-92
2022/03/10 01:20:59;;;;;;;9.30;4.30;;;;;;;8.73;nan;101838.13;4884354;29;20478;-92
2022/03/10 01:23:33;;;;;;;11.53;4.50;;;;;;;8.60;nan;101818.56;4866778;29;20570;-92
2022/03/10 01:26:02;;;;;;;9.60;3.93;;;;;;;8.69;nan;101839.44;4882421;29;20849;-91
2022/03/10 01:28:32;;;;;;;12.00;4.00;;;;;;;8.68;nan;101843.16;4883966;29;20901;-92
2022/03/10 01:31:00;;;;;;;8.57;3.30;;;;;;;8.62;nan;101838.34;4883595;29;20446;-93
2022/03/10 01:33:31;;;;;;;14.90;4.07;;;;;;;8.59;nan;101830.50;4898840;29;20442;-91
2022/03/10 01:36:00;;;;;;;8.97;3.30;;;;;;;8.56;nan;101844.41;4883813;29;20434;-91
2022/03/10 01:38:28;;;;;;;10.20;2.80;;;;;;;8.53;nan;101840.13;4883335;29;20450;-91
2022/03/10 01:40:58;;;;;;;8.80;2.00;;;;;;;8.53;nan;101839.28;4878078;29;20493;-92
2022/03/10 01:43:26;;;;;;;11.83;3.27;;;;;;;8.41;nan;101829.59;4867486;29;20513;-92
2022/03/10 01:46:02;;;;;;;10.40;2.83;;;;;;;8.39;nan;101837.06;4883457;29;20453;-92
2022/03/10 01:48:32;;;;;;;8.30;2.60;;;;;;;8.38;nan;101835.34;4867527;29;20456;-93
2022/03/10 01:51:03;;;;;;;9.23;3.33;;;;;;;8.43;nan;101844.78;4854798;29;20819;-92
2022/03/10 01:53:48;;;;;;;10.93;3.60;;;;;;;8.28;nan;101824.47;4865408;29;20811;-91
2022/03/10 01:56:23;;;;;;;7.17;3.20;;;;;;;8.28;nan;101824.47;4896487;29;20811;-93
2022/03/10 01:59:00;;;;;;;8.53;2.60;;;;;;;8.27;nan;101823.63;4868725;29;20508;-91
2022/03/10 02:01:34;;;;;;;10.80;2.90;;;;;;;8.28;nan;101836.22;4882855;29;21043;-91
2022/03/10 02:04:04;;;;;;;5.03;2.30;;;;;;;8.21;nan;101837.88;4898105;29;20575;-91
2022/03/10 02:06:33;;;;;;;10.43;3.50;;;;;;;8.13;nan;101826.84;4883371;29;20595;-91
2022/03/10 02:12:23;;;;;;;12.67;5.80;;;;;;;8.14;nan;101844.06;4860217;29;20455;-92
2022/03/10 02:17:43;;;;;;;11.03;4.53;;;;;;;8.00;nan;101826.34;4834659;29;20451;-92
2022/03/10 02:20:18;;;;;;;11.20;5.27;;;;;;;8.00;nan;101831.81;4846529;29;20455;-91
2022/03/10 02:22:47;;;;;;;11.20;4.60;;;;;;;8.07;nan;101832.94;4843546;29;20583;-92
2022/03/10 02:25:15;;;;;;;14.00;3.57;;;;;;;8.06;nan;101836.66;4842282;29;20468;-92
2022/03/10 02:27:50;;;;;;;16.67;2.70;;;;;;;7.96;nan;101824.94;4844654;29;20957;-92
2022/03/10 02:30:19;;;;;;;4.17;1.67;;;;;;;7.91;nan;101819.06;4844598;29;20443;-92
2022/03/10 02:32:53;;;;;;;17.37;2.60;;;;;;;7.91;nan;101832.69;4859660;29;21059;-93
2022/03/10 02:35:23;;;;;;;5.57;2.20;;;;;;;7.94;nan;101827.81;4844719;29;20463;-91
2022/03/10 02:37:50;;;;;;;9.63;3.50;;;;;;;7.93;nan;101825.22;4844231;29;20451;-91
2022/03/10 02:40:28;;;;;;;7.30;3.03;;;;;;;7.99;nan;101835.53;4830215;29;21059;-91
2022/03/10 02:43:01;;;;;;;10.00;3.80;;;;;;;7.91;nan;101827.25;4824173;29;20471;-91
2022/03/10 02:45:29;;;;;;;7.13;2.70;;;;;;;7.92;nan;101834.41;4835659;29;20527;-91
2022/03/10 02:48:00;;;;;;;9.47;2.43;;;;;;;7.87;nan;101826.72;4866440;29;20459;-90
2022/03/10 02:50:29;;;;;;;5.33;2.40;;;;;;;7.89;nan;101829.25;4895628;29;20504;-91
2022/03/10 02:53:03;;;;;;;9.53;2.40;;;;;;;7.79;nan;101806.69;4879261;29;20446;-91
2022/03/10 02:55:32;;;;;;;5.10;2.20;;;;;;;7.71;nan;101806.56;4893881;29;20458;-91
2022/03/10 02:58:00;;;;;;;8.27;2.40;;;;;;;7.79;nan;101809.41;4878711;29;20459;-93
2022/03/10 03:00:31;;;;;;;5.77;1.60;;;;;;;7.62;nan;101795.59;4879261;29;20454;-92
2022/03/10 03:03:00;;;;;;;3.27;1.30;;;;;;;7.63;nan;101815.50;4897306;29;20971;-93
2022/03/10 03:05:30;;;;;;;8.07;2.47;;;;;;;7.60;nan;101800.31;4882080;29;20457;-91
2022/03/10 03:07:58;;;;;;;8.10;2.30;;;;;;;7.59;nan;101808.63;4881336;29;20453;-91
2022/03/10 03:10:26;;;;;;;20.57;5.93;;;;;;;7.55;nan;101813.50;4867014;29;20458;-92
2022/03/10 03:12:54;;;;;;;11.83;4.90;;;;;;;7.57;nan;101822.38;4867258;29;20457;-92
2022/03/10 03:15:29;;;;;;;16.73;5.43;;;;;;;7.45;nan;101796.38;4866198;29;20880;-92
2022/03/10 03:18:01;;;;;;;14.50;4.67;;;;;;;7.55;nan;101816.22;4880839;29;20453;-92
2022/03/10 03:20:30;;;;;;;8.50;4.60;;;;;;;7.41;nan;101796.78;4863792;29;20443;-91
2022/03/10 03:22:58;;;;;;;6.57;3.40;;;;;;;7.50;nan;101807.66;4881937;29;20564;-92
2022/03/10 03:25:26;;;;;;;9.63;3.63;;;;;;;7.50;nan;101804.94;4861301;29;20478;-92
2022/03/10 03:28:01;;;;;;;11.77;4.00;;;;;;;7.42;nan;101791.22;4865915;29;20457;-95
2022/03/10 03:30:32;;;;;;;8.67;3.73;;;;;;;7.49;nan;101795.06;4879285;29;20817;-92
2022/03/10 03:32:59;;;;;;;9.63;3.87;;;;;;;7.41;nan;101778.63;4878806;29;20450;-93
2022/03/10 03:35:31;;;;;;;10.40;3.00;;;;;;;7.33;nan;101770.31;4878387;29;20492;-93
2022/03/10 03:38:04;;;;;;;7.20;2.87;;;;;;;7.43;nan;101784.78;4878897;29;20466;-93
2022/03/10 03:40:35;;;;;;;7.20;2.43;;;;;;;7.37;nan;101795.38;4863275;29;20459;-92
2022/03/10 03:43:18;;;;;;;3.17;1.83;;;;;;;7.26;nan;101796.41;4894719;29;20486;-93
2022/03/10 03:45:51;;;;;;;7.90;2.50;;;;;;;7.26;nan;101793.69;4867097;29;20442;-93
2022/03/10 03:48:26;;;;;;;10.33;2.70;;;;;;;7.25;nan;101778.38;4866875;29;20457;-92
2022/03/10 03:50:56;;;;;;;5.40;1.40;;;;;;;7.23;nan;101777.66;4881790;29;20502;-93
2022/03/10 03:53:25;;;;;;;8.63;1.70;;;;;;;7.14;nan;101773.09;4885006;29;20489;-92
2022/03/10 03:55:54;;;;;;;14.07;1.67;;;;;;;7.20;nan;101783.41;4869434;29;20838;-92
2022/03/10 03:58:28;;;;;;;4.83;1.33;;;;;;;7.21;nan;101790.53;4878506;29;20455;-93
2022/03/10 04:00:58;;;;;;;4.13;1.70;;;;;;;7.20;nan;101789.69;4897148;29;20458;-92
2022/03/10 04:03:26;;;;;;;2.90;1.47;;;;;;;7.20;nan;101794.28;4855673;29;20454;-90
2022/03/10 04:06:06;;;;;;;5.10;1.30;;;;;;;7.13;nan;101788.53;4835585;29;20998;-93
2022/03/10 04:08:37;;;;;;;2.37;1.10;;;;;;;7.14;nan;101794.84;4835511;29;20525;-93
2022/03/10 04:11:09;;;;;;;2.33;0.90;;;;;;;7.12;nan;101786.00;4850784;29;20945;-91
2022/03/10 04:13:38;;;;;;;5.43;1.23;;;;;;;7.07;nan;101777.41;4827829;29;20454;-93
2022/03/10 04:16:20;;;;;;;2.63;0.80;;;;;;;7.06;nan;101778.41;4816663;29;20467;-94
2022/03/10 04:18:48;;;;;;;6.00;1.37;;;;;;;7.09;nan;101789.00;4828786;29;20964;-91
2022/03/10 04:21:26;;;;;;;4.97;1.50;;;;;;;7.05;nan;101782.16;4818831;29;20487;-93
2022/03/10 04:23:57;;;;;;;4.87;1.70;;;;;;;7.00;nan;101777.13;4832493;29;20459;-91
2022/03/10 04:26:25;;;;;;;6.30;2.23;;;;;;;7.01;nan;101778.00;4831124;29;20515;-91
2022/03/10 04:28:54;;;;;;;7.43;2.50;;;;;;;6.90;nan;101771.72;4831769;29;20447;-94
2022/03/10 04:31:28;;;;;;;6.80;2.93;;;;;;;6.98;nan;101783.72;4847150;29;21052;-94
2022/03/10 04:33:57;;;;;;;10.63;3.40;;;;;;;6.99;nan;101777.28;4827129;29;20969;-91
2022/03/10 04:36:26;;;;;;;8.03;3.30;;;;;;;6.99;nan;101780.00;4838629;29;20451;-91
2022/03/10 04:38:56;;;;;;;6.70;2.73;;;;;;;6.98;nan;101789.16;4862843;29;20465;-93
2022/03/10 04:41:25;;;;;;;11.80;4.13;;;;;;;6.91;nan;101784.31;4883976;29;20493;-91
2022/03/10 04:43:59;;;;;;;12.03;4.37;;;;;;;6.97;nan;101780.13;4865192;29;20825;-92
2022/03/10 04:46:30;;;;;;;10.20;4.23;;;;;;;6.99;nan;101780.00;4880967;29;20454;-93
2022/03/10 04:49:00;;;;;;;15.63;6.10;;;;;;;6.81;nan;101756.28;4884441;29;20453;-91
2022/03/10 04:51:34;;;;;;;15.13;7.00;;;;;;;6.86;nan;101773.00;4866023;29;20441;-91
2022/03/10 04:54:03;;;;;;;6.10;2.40;;;;;;;6.83;nan;101772.44;4877795;29;20453;-92
2022/03/10 04:56:34;;;;;;;5.17;1.20;;;;;;;6.73;nan;101764.31;4884212;29;20462;-94
2022/03/10 04:59:14;;;;;;;3.97;1.10;;;;;;;6.77;nan;101790.16;4869099;29;20458;-92
2022/03/10 05:01:43;;;;;;;6.93;2.00;;;;;;;6.72;nan;101776.19;4897328;29;20840;-92
2022/03/10 05:04:15;;;;;;;7.30;3.57;;;;;;;6.69;nan;101778.31;4883071;29;20454;-94
2022/03/10 05:06:51;;;;;;;4.60;2.70;;;;;;;6.75;nan;101789.44;4884045;29;20454;-92
2022/03/10 05:09:22;;;;;;;8.27;2.70;;;;;;;6.77;nan;101792.88;4884134;29;20453;-93
2022/03/10 05:11:56;;;;;;;6.00;1.80;;;;;;;6.71;nan;101785.31;4899445;29;20981;-93
2022/03/10 05:14:38;;;;;;;6.20;1.23;;;;;;;6.69;nan;101781.91;4875997;29;20461;-94
2022/03/10 05:17:26;;;;;;;2.10;1.03;;;;;;;6.67;nan;101783.03;4877943;29;20459;-93
2022/03/10 05:19:55;;;;;;;3.67;1.43;;;;;;;6.66;nan;101784.03;4880653;29;20486;-92
2022/03/10 05:22:24;;;;;;;7.97;1.50;;;;;;;6.63;nan;101774.31;4877543;29;20493;-92
2022/03/10 05:24:55;;;;;;;6.83;1.47;;;;;;;6.67;nan;101781.19;4897917;29;20464;-93
2022/03/10 05:27:23;;;;;;;7.40;2.60;;;;;;;6.66;nan;101784.88;4883445;29;20485;-92
2022/03/10 05:29:50;;;;;;;5.80;2.80;;;;;;;6.57;nan;101785.72;4880192;29;20451;-93
2022/03/10 05:32:19;;;;;;;5.20;2.20;;;;;;;6.57;nan;101783.00;4881583;29;20815;-92
2022/03/10 05:34:47;;;;;;;5.33;1.47;;;;;;;6.57;nan;101785.72;4883691;29;20446;-92
2022/03/10 05:37:16;;;;;;;1.67;0.90;;;;;;;6.57;nan;101789.31;4882575;29;20444;-92
2022/03/10 05:39:57;;;;;;;2.23;1.30;;;;;;;6.59;nan;101791.88;4880204;29;20443;-92
2022/03/10 05:42:27;;;;;;;7.30;3.13;;;;;;;6.57;nan;101785.72;4867140;29;20546;-92
2022/03/10 05:45:02;;;;;;;8.90;3.70;;;;;;;6.55;nan;101793.16;4865000;29;20442;-92
2022/03/10 05:47:32;;;;;;;4.60;2.60;;;;;;;6.58;nan;101814.59;4883570;29;20476;-91
2022/03/10 05:50:03;;;;;;;10.30;3.60;;;;;;;6.49;nan;101793.75;4882270;29;20457;-92
2022/03/10 05:52:31;;;;;;;11.57;2.03;;;;;;;6.51;nan;101808.91;4882993;29;20941;-93
2022/03/10 05:55:05;;;;;;;6.23;1.87;;;;;;;6.40;nan;101790.00;4874739;29;20458;-94
2022/03/10 05:57:34;;;;;;;2.57;1.40;;;;;;;6.46;nan;101811.19;4898374;29;20464;-92
2022/03/10 06:00:02;;;;;;;5.13;2.10;;;;;;;6.43;nan;101803.31;4868013;29;20466;-91
2022/03/10 06:02:30;;;;;;;8.20;3.50;;;;;;;6.38;nan;101793.84;4880617;29;20493;-91
2022/03/10 06:05:02;;;;;;;9.33;2.87;;;;;;;6.39;nan;101799.16;4879658;29;20451;-92
2022/03/10 06:07:30;;;;;;;11.00;3.50;;;;;;;6.41;nan;101808.00;4878943;29;20462;-92
2022/03/10 06:09:59;;;;;;;5.00;2.50;;;;;;;6.34;nan;101790.59;4866981;29;20517;-93
2022/03/10 06:12:28;;;;;;;10.43;3.27;;;;;;;6.40;nan;101800.88;4867388;29;20450;-92
2022/03/10 06:15:00;;;;;;;12.33;4.40;;;;;;;6.41;nan;101796.28;4867840;29;20461;-93
2022/03/10 06:17:29;;;;;;;6.10;2.40;;;;;;;6.43;nan;101797.88;4867497;29;21008;-91
2022/03/10 06:19:58;;;;;;;10.93;4.30;;;;;;;6.47;nan;101802.03;4882347;29;20461;-92
2022/03/10 06:22:30;;;;;;;12.97;4.43;;;;;;;6.51;nan;101805.31;4875051;29;20521;-91
2022/03/10 06:24:58;;;;;;;7.83;3.47;;;;;;;6.52;nan;101804.34;4881683;29;20453;-91
2022/03/10 06:27:54;;;;;;;10.53;3.30;;;;;;;6.58;nan;101817.31;4867443;29;20484;-92
2022/03/10 06:30:43;;;;;;;10.30;3.43;;;;;;;6.61;nan;101817.03;4879431;29;20454;-93
2022/03/10 06:33:18;;;;;;;13.50;3.30;;;;;;;6.52;nan;101799.75;4879713;29;20896;-93
2022/03/10 06:36:05;;;;;;;8.27;2.97;;;;;;;6.60;nan;101807.19;4864301;29;20428;-92
2022/03/10 06:38:41;;;;;;;4.93;2.43;;;;;;;6.64;nan;101816.75;4875726;29;20457;-93
2022/03/10 06:41:12;;;;;;;3.90;2.03;;;;;;;6.62;nan;101816.03;4881784;29;20457;-92
2022/03/10 06:43:41;;;;;;;14.47;2.40;;;;;;;6.52;nan;101805.19;4814875;29;21013;-92
2022/03/10 06:46:09;;;;;;;8.53;1.60;;;;;;;6.47;nan;101801.16;4830299;29;20958;-92
2022/03/10 06:48:43;;;;;;;3.10;1.13;;;;;;;6.55;nan;101814.88;4830311;29;20435;-92
2022/03/10 06:51:14;;;;;;;4.93;1.90;;;;;;;6.37;nan;101778.56;4830092;29;20509;-92
2022/03/10 06:53:42;;;;;;;4.77;1.73;;;;;;;6.46;nan;101802.16;4844195;29;20456;-92
2022/03/10 06:56:10;;;;;;;6.40;1.07;;;;;;;6.34;nan;101789.72;4829425;29;20463;-92
2022/03/10 06:58:43;;;;;;;8.00;1.50;;;;;;;6.41;nan;101801.72;4829642;29;20452;-92
2022/03/10 07:01:11;;;;;;;3.13;1.00;;;;;;;6.30;nan;101801.88;4814408;29;20467;-92
2022/03/10 07:03:39;;;;;;;2.37;0.97;;;;;;;6.26;nan;101803.13;4814632;29;20506;-92
2022/03/10 07:06:13;;;;;;;3.07;0.93;;;;;;;6.29;nan;101819.16;4813421;29;20464;-91
2022/03/10 07:08:49;;;;;;;2.90;0.80;;;;;;;6.16;nan;101797.66;4844088;29;20976;-92
2022/03/10 07:11:26;;;;;;;3.30;0.90;;;;;;;6.30;nan;101827.16;4850604;29;20454;-92
2022/03/10 07:13:59;;;;;;;3.83;1.07;;;;;;;6.19;nan;101814.53;4887685;29;20464;-93
2022/03/10 07:16:33;;;;;;;2.50;0.80;;;;;;;6.28;nan;101822.84;4867250;29;20456;-93
2022/03/10 07:19:01;;;;;;;6.17;1.30;;;;;;;6.28;nan;101834.56;4870495;29;20599;-93
2022/03/10 07:21:37;;;;;;;4.60;1.43;;;;;;;6.31;nan;101845.16;4886263;29;20499;-92
2022/03/10 07:24:05;;;;;;;6.77;1.50;;;;;;;6.27;nan;101813.00;4867913;29;20481;-91
2022/03/10 07:26:33;;;;;;;2.60;1.23;;;;;;;6.37;nan;101822.88;4883773;29;20482;-91
2022/03/10 07:29:03;;;;;;;4.20;1.73;;;;;;;6.35;nan;101803.13;4844357;29;21049;-91
2022/03/10 07:31:33;;;;;;;5.57;1.60;;;;;;;6.45;nan;101809.47;4829308;29;20467;-92
2022/03/10 07:34:01;;;;;;;6.67;2.40;;;;;;;6.58;nan;101836.34;4830497;29;20452;-91
2022/03/10 07:36:35;;;;;;;9.50;1.90;;;;;;;6.65;nan;101832.06;4830884;29;20459;-92
2022/03/10 07:39:04;;;;;;;5.20;1.90;;;;;;;6.65;nan;101832.06;4847054;29;20850;-91
2022/03/10 07:41:39;;;;;;;22.70;3.07;;;;;;;6.66;nan;101828.34;4832835;29;20985;-92
2022/03/10 07:44:08;;;;;;;20.13;2.40;;;;;;;6.76;nan;101840.06;4828833;29;20480;-92
2022/03/10 07:46:43;;;;;;;15.57;2.13;;;;;;;6.83;nan;101840.38;4823204;29;21004;-92
2022/03/10 07:49:11;;;;;;;6.47;1.70;;;;;;;6.90;nan;101834.22;4853211;29;20445;-90
2022/03/10 07:51:48;;;;;;;9.03;2.17;;;;;;;6.94;nan;101822.03;4837763;29;20790;-92
2022/03/10 07:54:16;;;;;;;6.43;2.03;;;;;;;7.00;nan;101820.63;4833586;29;20438;-92
2022/03/10 07:56:46;;;;;;;7.13;1.80;;;;;;;7.06;nan;101824.63;4832828;29;20462;-92
2022/03/10 07:59:28;;;;;;;10.33;1.50;;;;;;;7.32;nan;101852.91;4833128;29;20452;-92
2022/03/10 08:01:56;;;;;;;5.40;2.00;;;;;;;7.37;nan;101850.63;4864353;29;20462;-85
2022/03/10 08:04:31;;;;;;;5.97;2.13;;;;;;;7.52;nan;101849.16;4834902;29;20977;-87
2022/03/10 08:06:59;;;;;;;14.97;3.10;;;;;;;7.60;nan;101854.72;4863040;29;20454;-88
2022/03/10 08:09:28;;;;;;;18.83;2.97;;;;;;;7.66;nan;101844.25;4834695;29;20456;-88
2022/03/10 08:11:59;;;;;;;10.50;2.67;;;;;;;7.81;nan;101859.09;4833971;29;20454;-88
2022/03/10 08:14:27;;;;;;;13.60;2.77;;;;;;;7.93;nan;101864.19;4847180;29;20510;-87
2022/03/10 08:17:09;;;;;;;10.10;2.13;;;;;;;8.08;nan;101870.00;4832961;29;20525;-88
2022/03/10 08:19:45;;;;;;;10.57;2.13;;;;;;;8.21;nan;101867.81;4849091;29;20446;-88
2022/03/10 08:22:16;;;;;;;4.70;1.80;;;;;;;8.40;nan;101872.34;4894033;29;20461;-88
2022/03/10 08:24:44;;;;;;;9.03;1.87;;;;;;;8.52;nan;101859.34;4898575;29;20458;-89
2022/03/10 08:27:17;;;;;;;14.87;2.70;;;;;;;8.69;nan;101869.41;4894844;29;20997;-88
2022/03/10 08:29:48;;;;;;;9.73;1.93;;;;;;;8.76;nan;101862.34;4888402;29;21009;-87
2022/03/10 08:32:25;;;;;;;7.33;1.83;;;;;;;8.92;nan;101869.81;4882403;29;20502;-87
2022/03/10 08:34:57;;;;;;;5.00;2.13;;;;;;;9.08;nan;101882.75;4880900;29;20803;-88
2022/03/10 08:37:29;;;;;;;6.00;2.03;;;;;;;9.20;nan;101876.06;4889227;29;20450;-87
2022/03/10 08:39:58;;;;;;;9.87;2.27;;;;;;;9.30;nan;101872.22;4903383;29;20469;-87
2022/03/10 08:42:32;;;;;;;7.63;1.90;;;;;;;9.44;nan;101870.78;4879003;29;20818;-88
2022/03/10 08:45:02;;;;;;;5.57;1.90;;;;;;;9.59;nan;101871.94;4879505;29;20497;-88
2022/03/10 08:47:34;;;;;;;15.70;2.00;;;;;;;9.77;nan;101879.22;4882391;29;20460;-88
2022/03/10 08:50:11;;;;;;;8.47;2.30;;;;;;;9.89;nan;101884.25;4898114;29;20441;-88
2022/03/10 08:52:46;;;;;;;14.70;3.70;;;;;;;10.11;nan;101888.28;4898638;29;20452;-88
2022/03/10 08:55:16;;;;;;;15.93;4.17;;;;;;;10.29;nan;101875.44;4900011;29;21058;-88
2022/03/10 08:57:47;;;;;;;16.67;4.50;;;;;;;10.62;nan;101883.75;4884212;29;20445;-88
2022/03/10 09:00:20;;;;;;;14.63;4.20;;;;;;;10.87;nan;101896.47;4884548;29;20441;-87
2022/03/10 09:03:01;;;;;;;16.37;4.53;;;;;;;11.05;nan;101894.44;4899319;29;20493;-88
2022/03/10 09:05:34;;;;;;;25.03;5.63;;;;;;;11.23;nan;101890.69;4864942;29;20513;-86
2022/03/10 09:08:04;;;;;;;14.03;4.20;;;;;;;11.43;nan;101892.94;4879219;29;20470;-87
2022/03/10 09:10:38;;;;;;;20.07;4.00;;;;;;;11.66;nan;101886.75;4898135;29;20956;-93
2022/03/10 09:13:28;;;;;;;23.00;4.80;;;;;;;11.88;nan;101899.78;4883533;29;20457;-92
2022/03/10 09:15:57;;;;;;;23.20;4.10;;;;;;;11.96;nan;101882.44;4874497;29;20461;-92
2022/03/10 09:18:34;;;;;;;22.70;5.00;;;;;;;12.20;nan;101890.59;4880493;29;20446;-93
2022/03/10 09:24:32;;;;;;;14.93;3.67;;;;;;;12.41;nan;101885.38;4881353;29;20981;-92
2022/03/10 09:39:13;;;;;;;18.93;3.43;;;;;;;13.07;nan;101905.09;4887205;29;20469;-88
2022/03/10 09:41:41;;;;;;;13.17;3.90;;;;;;;13.22;nan;101899.72;4882861;29;20441;-89
2022/03/10 09:44:17;;;;;;;21.10;6.30;;;;;;;13.38;nan;101905.91;4897665;29;21059;-89
2022/03/10 09:46:47;;;;;;;13.50;3.57;;;;;;;13.55;nan;101914.03;4886018;29;20464;-90
2022/03/10 09:49:16;;;;;;;18.83;4.03;;;;;;;13.60;nan;101903.34;4880789;29;20458;-89
2022/03/10 09:51:43;;;;;;;21.07;3.60;;;;;;;13.72;nan;101902.69;4864138;29;20457;-87
2022/03/10 09:54:12;;;;;;;17.47;2.77;;;;;;;13.83;nan;101891.28;4861359;29;20529;-91
2022/03/10 09:56:42;;;;;;;16.70;2.30;;;;;;;14.01;nan;101898.31;4879337;29;20509;-92
2022/03/10 09:59:12;;;;;;;10.90;3.00;;;;;;;14.22;nan;101889.31;4882958;29;20476;-87
2022/03/10 10:01:40;;;;;;;28.20;6.60;;;;;;;14.46;nan;101892.63;4897323;29;20841;-89
2022/03/10 10:04:08;;;;;;;14.77;3.67;;;;;;;14.70;nan;101871.34;4897421;29;20465;-91
2022/03/10 10:07:03;;;;;;;17.43;2.97;;;;;;;15.15;nan;101882.03;4882243;29;20449;-91
2022/03/10 10:09:45;;;;;;;13.13;2.03;;;;;;;15.51;nan;101881.09;4897948;29;20453;-85
2022/03/10 10:12:15;;;;;;;13.73;2.17;;;;;;;15.82;nan;101876.06;4897532;29;20929;-87
2022/03/10 10:14:50;;;;;;;20.70;2.80;;;;;;;16.11;nan;101879.69;4863463;29;20458;-88
2022/03/10 10:17:25;;;;;;;12.07;1.93;;;;;;;16.25;nan;101867.66;4888888;29;20453;-90
2022/03/10 10:19:59;;;;;;;17.20;2.90;;;;;;;16.42;nan;101868.19;4882055;29;20453;-87
2022/03/10 10:22:35;;;;;;;12.20;2.37;;;;;;;16.50;nan;101870.78;4880483;29;21060;-88
2022/03/10 10:25:05;;;;;;;10.50;2.63;;;;;;;16.59;nan;101859.34;4866735;29;20474;-89
2022/03/10 10:27:34;;;;;;;12.77;2.50;;;;;;;16.68;nan;101865.56;4866544;29;20949;-89
2022/03/10 10:30:05;;;;;;;15.60;2.70;;;;;;;16.72;nan;101864.09;4890178;29;20480;-89
2022/03/10 10:32:34;;;;;;;13.37;2.20;;;;;;;16.86;nan;101857.56;4879802;29;20454;-89
2022/03/10 10:35:08;;;;;;;9.97;2.27;;;;;;;17.02;nan;101863.75;4874331;29;20464;-88
2022/03/10 10:37:37;;;;;;;11.60;2.10;;;;;;;17.13;nan;101863.97;4911204;29;20450;-89
2022/03/10 10:40:11;;;;;;;11.60;2.67;;;;;;;17.25;nan;101865.09;4880668;29;20859;-88
2022/03/10 10:42:44;;;;;;;20.60;2.37;;;;;;;17.37;nan;101858.91;4894320;29;20464;-88
2022/03/10 10:45:28;;;;;;;9.90;2.23;;;;;;;17.55;nan;101864.66;4897133;29;20450;-88
2022/03/10 10:48:09;;;;;;;11.50;2.37;;;;;;;17.63;nan;101852.56;4896688;29;20449;-90
2022/03/10 10:50:39;;;;;;;12.83;2.00;;;;;;;17.80;nan;101863.00;4882861;29;20453;-90
2022/03/10 10:53:08;;;;;;;13.20;2.43;;;;;;;17.85;nan;101849.38;4883792;29;20513;-91
2022/03/10 10:55:39;;;;;;;9.63;1.70;;;;;;;18.01;nan;101847.22;4893641;29;20460;-89
2022/03/10 10:58:15;;;;;;;12.43;1.90;;;;;;;18.04;nan;101830.19;4882421;29;20458;-90
2022/03/10 11:00:49;;;;;;;8.10;2.13;;;;;;;18.18;nan;101849.31;4885268;29;20460;-90
2022/03/10 11:03:23;;;;;;;5.97;1.53;;;;;;;18.34;nan;101847.97;4885372;29;20477;-92
2022/03/10 11:05:55;;;;;;;5.83;1.60;;;;;;;18.48;nan;101846.84;4886059;29;20448;-93
2022/03/10 11:08:28;;;;;;;23.03;1.70;;;;;;;18.53;nan;101841.50;4881623;29;20502;-90
2022/03/10 11:10:59;;;;;;;8.40;1.50;;;;;;;18.67;nan;101847.00;4863615;29;20964;-91
2022/03/10 11:13:28;;;;;;;5.47;1.10;;;;;;;18.77;nan;101859.34;4885442;29;20481;-93
2022/03/10 11:15:55;;;;;;;13.67;2.10;;;;;;;18.96;nan;101863.91;4885426;29;20453;-90
2022/03/10 11:18:25;;;;;;;8.40;1.30;;;;;;;19.12;nan;101870.84;4901283;29;20882;-92
2022/03/10 11:21:06;;;;;;;7.47;1.90;;;;;;;19.26;nan;101863.28;4884774;29;20499;-92
2022/03/10 11:23:38;;;;;;;9.87;1.53;;;;;;;19.39;nan;101845.72;4900891;29;20481;-91
2022/03/10 11:26:14;;;;;;;12.50;2.07;;;;;;;19.50;nan;101847.78;4901684;29;20528;-91
2022/03/10 11:28:44;;;;;;;14.07;2.43;;;;;;;19.52;nan;101840.09;4901103;29;20456;-93
2022/03/10 11:31:14;;;;;;;5.27;1.80;;;;;;;19.57;nan;101831.94;4870429;29;20446;-92
2022/03/10 11:33:43;;;;;;;7.57;2.20;;;;;;;19.62;nan;101837.69;4870137;29;20460;-91
2022/03/10 11:36:32;;;;;;;10.40;2.53;;;;;;;19.74;nan;101833.06;4866711;29;20458;-91
2022/03/10 11:39:10;;;;;;;10.90;1.93;;;;;;;19.94;nan;101836.50;4886227;29;20476;-91
2022/03/10 11:41:46;;;;;;;8.37;1.90;;;;;;;20.07;nan;101831.88;4881675;29;20470;-91
2022/03/10 11:44:18;;;;;;;7.50;1.80;;;;;;;20.17;nan;101815.56;4865312;29;20473;-90
2022/03/10 11:47:00;;;;;;;16.37;3.40;;;;;;;20.25;nan;101806.91;4870163;29;20949;-90
2022/03/10 11:49:39;;;;;;;9.03;2.50;;;;;;;20.26;nan;101811.38;4867520;29;20462;-92
2022/03/10 11:52:24;;;;;;;15.77;2.67;;;;;;;20.39;nan;101825.16;4867468;29;20449;-92
2022/03/10 11:55:09;;;;;;;13.43;2.80;;;;;;;20.48;nan;101823.72;4869699;29;20461;-91
2022/03/10 11:57:56;;;;;;;15.87;3.53;;;;;;;20.65;nan;101835.06;4882914;29;20518;-90
2022/03/10 12:00:47;;;;;;;12.40;2.97;;;;;;;20.73;nan;101828.34;4894223;29;20456;-91
2022/03/10 12:03:29;;;;;;;11.97;2.47;;;;;;;20.85;nan;101845.91;4880944;29;20836;-92
2022/03/10 12:06:05;;;;;;;11.03;2.50;;;;;;;20.73;nan;101842.22;4792554;29;20962;-90
2022/03/10 12:08:36;;;;;;;11.57;2.33;;;;;;;20.52;nan;101824.97;4802870;29;20565;-89
2022/03/10 12:11:07;;;;;;;10.83;2.07;;;;;;;20.54;nan;101844.19;4805266;29;20484;-89
2022/03/10 12:13:39;;;;;;;7.67;3.13;;;;;;;20.29;nan;101841.44;4808977;29;20461;-90
2022/03/10 12:16:08;;;;;;;8.70;2.67;;;;;;;20.30;nan;101837.59;4810111;29;20586;-89
2022/03/10 12:18:39;;;;;;;9.70;2.20;;;;;;;20.30;nan;101851.47;4791533;29;20457;-89
2022/03/10 12:21:23;;;;;;;9.80;2.50;;;;;;;20.30;nan;101837.59;4822466;29;20827;-90
2022/03/10 12:24:04;;;;;;;9.00;3.27;;;;;;;20.22;nan;101849.00;4826408;29;21012;-90
2022/03/10 12:26:33;;;;;;;9.93;2.37;;;;;;;20.19;nan;101838.38;4861012;29;20486;-89
2022/03/10 12:29:12;;;;;;;10.83;1.77;;;;;;;20.27;nan;101838.06;4867735;29;20468;-90